sensor_id;sensor_type;location;lat;lon;timestamp;temperature;humidity
4874;DHT22;2451;49.970;9.068;2023-04-30T00:01:47;12.20;99.90
4874;DHT22;2451;49.970;9.068;2023-04-30T00:04:12;12.20;99.90
4874;DHT22;2451;49.970;9.068;2023-04-30T00:06:38;12.20;99.90
4874;DHT22;2451;49.970;9.068;2023-04-30T00:09:03;12.20;99.90
4874;DHT22;2451;49.970;9.068;2023-04-30T00:11:29;12.10;99.90
4874;DHT22;2451;49.970;9.068;2023-04-30T00:13:55;12.10;99.90
4874;DHT22;2451;49.970;9.068;2023-04-30T00:16:21;12.10;99.90
4874;DHT22;2451;49.970;9.068;2023-04-30T00:18:47;12.10;99.90
4874;DHT22;2451;49.970;9.068;2023-04-30T00:21:12;12.10;99.90
4874;DHT22;2451;49.970;9.068;2023-04-30T00:23:38;12.10;99.90
4874;DHT22;2451;49.970;9.068;2023-04-30T00:26:03;12.10;99.90
4874;DHT22;2451;49.970;9.068;2023-04-30T00:28:29;12.00;99.90
4874;DHT22;2451;49.970;9.068;2023-04-30T00:30:54;12.00;99.90
4874;DHT22;2451;49.970;9.068;2023-04-30T00:33:20;12.00;99.90
4874;DHT22;2451;49.970;9.068;2023-04-30T00:35:46;12.00;99.90
4874;DHT22;2451;49.970;9.068;2023-04-30T00:38:12;12.00;99.90
4874;DHT22;2451;49.970;9.068;2023-04-30T00:40:39;12.00;99.90
4874;DHT22;2451;49.970;9.068;2023-04-30T00:43:05;11.90;99.90
4874;DHT22;2451;49.970;9.068;2023-04-30T00:45:31;12.00;99.90
4874;DHT22;2451;49.970;9.068;2023-04-30T00:47:56;11.90;99.90
4874;DHT22;2451;49.970;9.068;2023-04-30T00:50:22;11.80;99.90
4874;DHT22;2451;49.970;9.068;2023-04-30T00:52:48;11.80;99.90
4874;DHT22;2451;49.970;9.068;2023-04-30T00:55:14;11.80;99.90
4874;DHT22;2451;49.970;9.068;2023-04-30T00:57:41;11.80;99.90
4874;DHT22;2451;49.970;9.068;2023-04-30T01:00:07;11.80;99.90
4874;DHT22;2451;49.970;9.068;2023-04-30T01:02:36;11.80;99.90
4874;DHT22;2451;49.970;9.068;2023-04-30T01:05:02;11.80;99.90
4874;DHT22;2451;49.970;9.068;2023-04-30T01:07:28;11.80;99.90
4874;DHT22;2451;49.970;9.068;2023-04-30T01:09:54;11.80;99.90
4874;DHT22;2451;49.970;9.068;2023-04-30T01:12:47;11.80;99.90
4874;DHT22;2451;49.970;9.068;2023-04-30T01:15:38;11.80;99.90
4874;DHT22;2451;49.970;9.068;2023-04-30T01:18:22;11.70;99.90
4874;DHT22;2451;49.970;9.068;2023-04-30T01:20:53;11.70;99.90
4874;DHT22;2451;49.970;9.068;2023-04-30T01:24:05;11.60;99.90
4874;DHT22;2451;49.970;9.068;2023-04-30T01:29:23;11.60;99.90
4874;DHT22;2451;49.970;9.068;2023-04-30T01:31:51;11.60;99.90
4874;DHT22;2451;49.970;9.068;2023-04-30T01:34:16;11.60;99.90
4874;DHT22;2451;49.970;9.068;2023-04-30T01:37:38;11.60;99.90
4874;DHT22;2451;49.970;9.068;2023-04-30T01:42:22;11.70;99.90
4874;DHT22;2451;49.970;9.068;2023-04-30T01:45:19;11.70;99.90
4874;DHT22;2451;49.970;9.068;2023-04-30T01:50:41;11.60;99.90
4874;DHT22;2451;49.970;9.068;2023-04-30T01:53:11;11.70;99.90
4874;DHT22;2451;49.970;9.068;2023-04-30T01:58:09;11.70;99.90
4874;DHT22;2451;49.970;9.068;2023-04-30T02:00:35;11.70;99.90
4874;DHT22;2451;49.970;9.068;2023-04-30T02:03:01;11.60;99.90
4874;DHT22;2451;49.970;9.068;2023-04-30T02:05:26;11.60;99.90
4874;DHT22;2451;49.970;9.068;2023-04-30T02:07:52;11.60;99.90
4874;DHT22;2451;49.970;9.068;2023-04-30T02:10:21;11.60;99.90
4874;DHT22;2451;49.970;9.068;2023-04-30T02:12:47;11.60;99.90
4874;DHT22;2451;49.970;9.068;2023-04-30T02:15:12;11.60;99.90
4874;DHT22;2451;49.970;9.068;2023-04-30T02:17:38;11.60;99.90
4874;DHT22;2451;49.970;9.068;2023-04-30T02:20:04;11.60;99.90
4874;DHT22;2451;49.970;9.068;2023-04-30T02:22:30;11.60;99.90
4874;DHT22;2451;49.970;9.068;2023-04-30T02:24:55;11.70;99.90
4874;DHT22;2451;49.970;9.068;2023-04-30T02:27:23;11.70;99.90
4874;DHT22;2451;49.970;9.068;2023-04-30T02:29:51;11.60;99.90
4874;DHT22;2451;49.970;9.068;2023-04-30T02:32:17;11.60;99.90
4874;DHT22;2451;49.970;9.068;2023-04-30T02:34:43;11.60;99.90
4874;DHT22;2451;49.970;9.068;2023-04-30T02:37:09;11.60;99.90
4874;DHT22;2451;49.970;9.068;2023-04-30T02:39:34;11.60;99.90
4874;DHT22;2451;49.970;9.068;2023-04-30T02:42:00;11.60;99.90
4874;DHT22;2451;49.970;9.068;2023-04-30T02:44:27;11.70;99.90
4874;DHT22;2451;49.970;9.068;2023-04-30T02:46:53;11.70;99.90
4874;DHT22;2451;49.970;9.068;2023-04-30T02:49:19;11.70;99.90
4874;DHT22;2451;49.970;9.068;2023-04-30T02:51:44;11.70;99.90
4874;DHT22;2451;49.970;9.068;2023-04-30T02:54:10;11.70;99.90
4874;DHT22;2451;49.970;9.068;2023-04-30T02:56:35;11.70;99.90
4874;DHT22;2451;49.970;9.068;2023-04-30T02:59:03;11.70;99.90
4874;DHT22;2451;49.970;9.068;2023-04-30T03:01:28;11.70;99.90
4874;DHT22;2451;49.970;9.068;2023-04-30T03:03:54;11.80;99.90
4874;DHT22;2451;49.970;9.068;2023-04-30T03:06:19;11.80;99.90
4874;DHT22;2451;49.970;9.068;2023-04-30T03:08:45;11.80;99.90
4874;DHT22;2451;49.970;9.068;2023-04-30T03:11:11;11.80;99.90
4874;DHT22;2451;49.970;9.068;2023-04-30T03:13:36;11.80;99.90
4874;DHT22;2451;49.970;9.068;2023-04-30T03:16:03;11.70;99.90
4874;DHT22;2451;49.970;9.068;2023-04-30T03:18:31;11.70;99.90
4874;DHT22;2451;49.970;9.068;2023-04-30T03:20:57;11.70;99.90
4874;DHT22;2451;49.970;9.068;2023-04-30T03:23:23;11.60;99.90
4874;DHT22;2451;49.970;9.068;2023-04-30T03:25:49;11.60;99.90
4874;DHT22;2451;49.970;9.068;2023-04-30T03:28:14;11.50;99.90
4874;DHT22;2451;49.970;9.068;2023-04-30T03:30:40;11.50;99.90
4874;DHT22;2451;49.970;9.068;2023-04-30T03:33:06;11.40;99.90
4874;DHT22;2451;49.970;9.068;2023-04-30T03:35:32;11.40;99.90
4874;DHT22;2451;49.970;9.068;2023-04-30T03:37:59;11.40;99.90
4874;DHT22;2451;49.970;9.068;2023-04-30T03:40:24;11.40;99.90
4874;DHT22;2451;49.970;9.068;2023-04-30T03:42:50;11.30;99.90
4874;DHT22;2451;49.970;9.068;2023-04-30T03:45:15;11.30;99.90
4874;DHT22;2451;49.970;9.068;2023-04-30T03:47:42;11.30;99.90
4874;DHT22;2451;49.970;9.068;2023-04-30T03:50:08;11.30;99.90
4874;DHT22;2451;49.970;9.068;2023-04-30T03:52:34;11.30;99.90
4874;DHT22;2451;49.970;9.068;2023-04-30T03:55:01;11.30;99.90
4874;DHT22;2451;49.970;9.068;2023-04-30T03:57:27;11.30;99.90
4874;DHT22;2451;49.970;9.068;2023-04-30T03:59:52;11.40;99.90
4874;DHT22;2451;49.970;9.068;2023-04-30T04:02:18;11.40;99.90
4874;DHT22;2451;49.970;9.068;2023-04-30T04:04:44;11.40;99.90
4874;DHT22;2451;49.970;9.068;2023-04-30T04:07:09;11.50;99.90
4874;DHT22;2451;49.970;9.068;2023-04-30T04:09:35;11.50;99.90
4874;DHT22;2451;49.970;9.068;2023-04-30T04:12:01;11.60;99.90
4874;DHT22;2451;49.970;9.068;2023-04-30T04:14:27;11.60;99.90
4874;DHT22;2451;49.970;9.068;2023-04-30T04:16:52;11.60;99.90
4874;DHT22;2451;49.970;9.068;2023-04-30T04:19:18;11.60;99.90
4874;DHT22;2451;49.970;9.068;2023-04-30T04:21:43;11.60;99.90
4874;DHT22;2451;49.970;9.068;2023-04-30T04:24:09;11.60;99.90
4874;DHT22;2451;49.970;9.068;2023-04-30T04:26:35;11.60;99.90
4874;DHT22;2451;49.970;9.068;2023-04-30T04:29:04;11.60;99.90
4874;DHT22;2451;49.970;9.068;2023-04-30T04:31:30;11.60;99.90
4874;DHT22;2451;49.970;9.068;2023-04-30T04:33:59;11.50;99.90
4874;DHT22;2451;49.970;9.068;2023-04-30T04:36:26;11.40;99.90
4874;DHT22;2451;49.970;9.068;2023-04-30T04:38:53;11.40;99.90
4874;DHT22;2451;49.970;9.068;2023-04-30T04:41:18;11.40;99.90
4874;DHT22;2451;49.970;9.068;2023-04-30T04:43:44;11.40;99.90
4874;DHT22;2451;49.970;9.068;2023-04-30T04:46:10;11.40;99.90
4874;DHT22;2451;49.970;9.068;2023-04-30T04:48:35;11.40;99.90
4874;DHT22;2451;49.970;9.068;2023-04-30T04:51:01;11.40;99.90
4874;DHT22;2451;49.970;9.068;2023-04-30T04:53:27;11.40;99.90
4874;DHT22;2451;49.970;9.068;2023-04-30T04:55:52;11.40;99.90
4874;DHT22;2451;49.970;9.068;2023-04-30T04:58:18;11.40;99.90
4874;DHT22;2451;49.970;9.068;2023-04-30T05:00:43;11.40;99.90
4874;DHT22;2451;49.970;9.068;2023-04-30T05:03:09;11.40;99.90
4874;DHT22;2451;49.970;9.068;2023-04-30T05:05:35;11.50;99.90
4874;DHT22;2451;49.970;9.068;2023-04-30T05:08:01;11.50;99.90
4874;DHT22;2451;49.970;9.068;2023-04-30T05:10:26;11.60;99.90
4874;DHT22;2451;49.970;9.068;2023-04-30T05:12:52;11.60;99.90
4874;DHT22;2451;49.970;9.068;2023-04-30T05:15:17;11.70;99.90
4874;DHT22;2451;49.970;9.068;2023-04-30T05:17:43;11.70;99.90
4874;DHT22;2451;49.970;9.068;2023-04-30T05:20:09;11.80;99.90
4874;DHT22;2451;49.970;9.068;2023-04-30T05:22:35;11.80;99.90
4874;DHT22;2451;49.970;9.068;2023-04-30T05:25:01;11.90;99.90
4874;DHT22;2451;49.970;9.068;2023-04-30T05:27:26;12.00;99.90
4874;DHT22;2451;49.970;9.068;2023-04-30T05:29:52;12.00;99.90
4874;DHT22;2451;49.970;9.068;2023-04-30T05:32:17;12.10;99.90
4874;DHT22;2451;49.970;9.068;2023-04-30T05:34:43;12.10;99.90
4874;DHT22;2451;49.970;9.068;2023-04-30T05:37:08;12.10;99.90
4874;DHT22;2451;49.970;9.068;2023-04-30T05:39:34;12.10;99.90
4874;DHT22;2451;49.970;9.068;2023-04-30T05:41:59;12.20;99.90
4874;DHT22;2451;49.970;9.068;2023-04-30T05:44:26;12.30;99.90
4874;DHT22;2451;49.970;9.068;2023-04-30T05:46:54;12.30;99.90
4874;DHT22;2451;49.970;9.068;2023-04-30T05:49:20;12.40;99.90
4874;DHT22;2451;49.970;9.068;2023-04-30T05:51:45;12.40;99.90
4874;DHT22;2451;49.970;9.068;2023-04-30T05:54:11;12.50;99.90
4874;DHT22;2451;49.970;9.068;2023-04-30T05:56:36;12.60;99.90
4874;DHT22;2451;49.970;9.068;2023-04-30T05:59:02;12.80;99.90
4874;DHT22;2451;49.970;9.068;2023-04-30T06:01:27;12.80;99.90
4874;DHT22;2451;49.970;9.068;2023-04-30T06:03:54;12.90;99.90
4874;DHT22;2451;49.970;9.068;2023-04-30T06:06:19;13.10;99.90
4874;DHT22;2451;49.970;9.068;2023-04-30T06:08:45;13.30;99.90
4874;DHT22;2451;49.970;9.068;2023-04-30T06:11:11;13.40;99.90
4874;DHT22;2451;49.970;9.068;2023-04-30T06:13:38;13.60;99.90
4874;DHT22;2451;49.970;9.068;2023-04-30T06:16:04;13.70;99.90
4874;DHT22;2451;49.970;9.068;2023-04-30T06:18:29;13.80;99.90
4874;DHT22;2451;49.970;9.068;2023-04-30T06:20:55;13.90;99.90
4874;DHT22;2451;49.970;9.068;2023-04-30T06:23:20;13.90;99.90
4874;DHT22;2451;49.970;9.068;2023-04-30T06:25:46;14.00;99.90
4874;DHT22;2451;49.970;9.068;2023-04-30T06:28:12;14.00;99.90
4874;DHT22;2451;49.970;9.068;2023-04-30T06:30:37;14.00;99.90
4874;DHT22;2451;49.970;9.068;2023-04-30T06:33:03;13.90;99.90
4874;DHT22;2451;49.970;9.068;2023-04-30T06:35:28;13.90;99.90
4874;DHT22;2451;49.970;9.068;2023-04-30T06:37:54;13.90;99.90
4874;DHT22;2451;49.970;9.068;2023-04-30T06:40:20;13.80;99.90
4874;DHT22;2451;49.970;9.068;2023-04-30T06:42:45;13.80;99.90
4874;DHT22;2451;49.970;9.068;2023-04-30T06:45:11;13.90;99.90
4874;DHT22;2451;49.970;9.068;2023-04-30T06:47:39;14.00;99.90
4874;DHT22;2451;49.970;9.068;2023-04-30T06:50:07;14.10;99.90
4874;DHT22;2451;49.970;9.068;2023-04-30T06:52:33;14.20;99.90
4874;DHT22;2451;49.970;9.068;2023-04-30T06:54:58;14.30;99.90
4874;DHT22;2451;49.970;9.068;2023-04-30T06:57:25;14.40;99.90
4874;DHT22;2451;49.970;9.068;2023-04-30T06:59:52;14.40;99.90
4874;DHT22;2451;49.970;9.068;2023-04-30T07:02:17;14.60;99.90
4874;DHT22;2451;49.970;9.068;2023-04-30T07:04:43;14.70;99.90
4874;DHT22;2451;49.970;9.068;2023-04-30T07:07:08;14.90;99.90
4874;DHT22;2451;49.970;9.068;2023-04-30T07:09:34;15.10;99.90
4874;DHT22;2451;49.970;9.068;2023-04-30T07:12:00;15.30;99.90
4874;DHT22;2451;49.970;9.068;2023-04-30T07:14:26;15.50;99.90
4874;DHT22;2451;49.970;9.068;2023-04-30T07:16:52;15.50;99.90
4874;DHT22;2451;49.970;9.068;2023-04-30T07:19:17;15.70;99.90
4874;DHT22;2451;49.970;9.068;2023-04-30T07:21:43;15.80;99.90
4874;DHT22;2451;49.970;9.068;2023-04-30T07:24:09;16.00;99.90
4874;DHT22;2451;49.970;9.068;2023-04-30T07:26:34;16.20;99.90
4874;DHT22;2451;49.970;9.068;2023-04-30T07:29:01;16.30;99.90
4874;DHT22;2451;49.970;9.068;2023-04-30T07:31:26;16.40;99.90
4874;DHT22;2451;49.970;9.068;2023-04-30T07:33:52;16.60;99.90
4874;DHT22;2451;49.970;9.068;2023-04-30T07:36:19;16.70;99.90
4874;DHT22;2451;49.970;9.068;2023-04-30T07:38:45;16.80;99.90
4874;DHT22;2451;49.970;9.068;2023-04-30T07:41:10;17.00;99.90
4874;DHT22;2451;49.970;9.068;2023-04-30T07:43:36;17.10;99.60
4874;DHT22;2451;49.970;9.068;2023-04-30T07:46:02;17.20;99.20
4874;DHT22;2451;49.970;9.068;2023-04-30T07:48:28;17.30;98.80
4874;DHT22;2451;49.970;9.068;2023-04-30T07:50:54;17.30;97.70
4874;DHT22;2451;49.970;9.068;2023-04-30T07:53:19;17.20;97.30
4874;DHT22;2451;49.970;9.068;2023-04-30T07:55:45;17.40;97.20
4874;DHT22;2451;49.970;9.068;2023-04-30T07:58:10;17.50;96.50
4874;DHT22;2451;49.970;9.068;2023-04-30T08:00:36;17.70;96.70
4874;DHT22;2451;49.970;9.068;2023-04-30T08:03:01;17.90;95.40
4874;DHT22;2451;49.970;9.068;2023-04-30T08:05:27;18.10;95.60
4874;DHT22;2451;49.970;9.068;2023-04-30T08:07:53;18.10;94.90
4874;DHT22;2451;49.970;9.068;2023-04-30T08:10:18;18.40;93.70
4874;DHT22;2451;49.970;9.068;2023-04-30T08:12:44;18.40;93.30
4874;DHT22;2451;49.970;9.068;2023-04-30T08:15:10;18.50;93.00
4874;DHT22;2451;49.970;9.068;2023-04-30T08:17:35;18.60;92.10
4874;DHT22;2451;49.970;9.068;2023-04-30T08:20:03;18.50;92.00
4874;DHT22;2451;49.970;9.068;2023-04-30T08:22:29;18.50;91.50
4874;DHT22;2451;49.970;9.068;2023-04-30T08:24:54;18.30;90.70
4874;DHT22;2451;49.970;9.068;2023-04-30T08:27:20;18.30;91.20
4874;DHT22;2451;49.970;9.068;2023-04-30T08:29:46;18.50;91.50
4874;DHT22;2451;49.970;9.068;2023-04-30T08:32:12;18.90;91.10
4874;DHT22;2451;49.970;9.068;2023-04-30T08:34:37;19.10;90.80
4874;DHT22;2451;49.970;9.068;2023-04-30T08:37:05;19.20;90.00
4874;DHT22;2451;49.970;9.068;2023-04-30T08:39:31;19.40;88.90
4874;DHT22;2451;49.970;9.068;2023-04-30T08:42:00;19.60;89.00
4874;DHT22;2451;49.970;9.068;2023-04-30T08:44:26;19.70;84.50
4874;DHT22;2451;49.970;9.068;2023-04-30T08:46:54;19.80;87.40
4874;DHT22;2451;49.970;9.068;2023-04-30T08:49:23;20.00;86.20
4874;DHT22;2451;49.970;9.068;2023-04-30T08:51:50;20.00;82.30
4874;DHT22;2451;49.970;9.068;2023-04-30T08:54:17;19.80;83.40
4874;DHT22;2451;49.970;9.068;2023-04-30T08:56:44;19.80;80.70
4874;DHT22;2451;49.970;9.068;2023-04-30T08:59:11;19.80;81.00
4874;DHT22;2451;49.970;9.068;2023-04-30T09:01:37;19.90;81.40
4874;DHT22;2451;49.970;9.068;2023-04-30T09:04:03;20.00;79.00
4874;DHT22;2451;49.970;9.068;2023-04-30T09:06:29;19.70;76.50
4874;DHT22;2451;49.970;9.068;2023-04-30T09:08:55;19.60;77.80
4874;DHT22;2451;49.970;9.068;2023-04-30T09:11:25;19.40;79.60
4874;DHT22;2451;49.970;9.068;2023-04-30T09:13:53;19.40;77.30
4874;DHT22;2451;49.970;9.068;2023-04-30T09:16:20;19.50;79.10
4874;DHT22;2451;49.970;9.068;2023-04-30T09:18:47;19.70;78.20
4874;DHT22;2451;49.970;9.068;2023-04-30T09:21:13;19.60;76.80
4874;DHT22;2451;49.970;9.068;2023-04-30T09:23:57;19.60;76.50
4874;DHT22;2451;49.970;9.068;2023-04-30T09:26:29;19.70;74.90
4874;DHT22;2451;49.970;9.068;2023-04-30T09:28:56;19.70;76.60
4874;DHT22;2451;49.970;9.068;2023-04-30T09:31:22;19.70;76.90
4874;DHT22;2451;49.970;9.068;2023-04-30T09:33:49;19.70;76.00
4874;DHT22;2451;49.970;9.068;2023-04-30T09:36:15;19.70;76.40
4874;DHT22;2451;49.970;9.068;2023-04-30T09:38:41;19.80;77.60
4874;DHT22;2451;49.970;9.068;2023-04-30T09:41:23;20.10;77.90
4874;DHT22;2451;49.970;9.068;2023-04-30T09:43:50;20.40;76.80
4874;DHT22;2451;49.970;9.068;2023-04-30T09:46:18;20.70;76.20
4874;DHT22;2451;49.970;9.068;2023-04-30T09:48:44;20.90;75.60
4874;DHT22;2451;49.970;9.068;2023-04-30T09:51:10;20.90;71.60
4874;DHT22;2451;49.970;9.068;2023-04-30T09:53:41;20.80;71.50
4874;DHT22;2451;49.970;9.068;2023-04-30T09:56:07;21.00;74.80
4874;DHT22;2451;49.970;9.068;2023-04-30T09:58:37;21.40;74.10
4874;DHT22;2451;49.970;9.068;2023-04-30T10:01:04;21.70;72.00
4874;DHT22;2451;49.970;9.068;2023-04-30T10:03:38;21.80;71.20
4874;DHT22;2451;49.970;9.068;2023-04-30T10:06:05;22.20;74.30
4874;DHT22;2451;49.970;9.068;2023-04-30T10:08:35;22.30;69.90
4874;DHT22;2451;49.970;9.068;2023-04-30T10:11:06;22.50;68.00
4874;DHT22;2451;49.970;9.068;2023-04-30T10:13:40;22.70;68.90
4874;DHT22;2451;49.970;9.068;2023-04-30T10:16:13;23.00;69.70
4874;DHT22;2451;49.970;9.068;2023-04-30T10:18:45;22.90;63.90
4874;DHT22;2451;49.970;9.068;2023-04-30T10:21:12;22.80;66.60
4874;DHT22;2451;49.970;9.068;2023-04-30T10:23:39;22.60;62.40
4874;DHT22;2451;49.970;9.068;2023-04-30T10:26:11;22.20;63.30
4874;DHT22;2451;49.970;9.068;2023-04-30T10:28:37;21.80;60.00
4874;DHT22;2451;49.970;9.068;2023-04-30T10:31:05;21.70;62.50
4874;DHT22;2451;49.970;9.068;2023-04-30T10:33:36;21.60;63.00
4874;DHT22;2451;49.970;9.068;2023-04-30T10:36:05;21.60;61.10
4874;DHT22;2451;49.970;9.068;2023-04-30T10:38:32;21.90;62.80
4874;DHT22;2451;49.970;9.068;2023-04-30T10:40:59;22.10;61.90
4874;DHT22;2451;49.970;9.068;2023-04-30T10:43:31;22.00;59.90
4874;DHT22;2451;49.970;9.068;2023-04-30T10:45:59;22.00;58.90
4874;DHT22;2451;49.970;9.068;2023-04-30T10:48:25;22.20;60.80
4874;DHT22;2451;49.970;9.068;2023-04-30T10:50:54;22.40;60.60
4874;DHT22;2451;49.970;9.068;2023-04-30T10:53:20;22.60;57.90
4874;DHT22;2451;49.970;9.068;2023-04-30T10:56:07;22.50;58.10
4874;DHT22;2451;49.970;9.068;2023-04-30T10:58:37;22.30;59.00
4874;DHT22;2451;49.970;9.068;2023-04-30T11:01:14;22.40;57.20
4874;DHT22;2451;49.970;9.068;2023-04-30T11:03:41;22.40;58.10
4874;DHT22;2451;49.970;9.068;2023-04-30T11:06:11;22.90;58.60
4874;DHT22;2451;49.970;9.068;2023-04-30T11:08:39;23.20;59.50
4874;DHT22;2451;49.970;9.068;2023-04-30T11:11:08;23.40;56.20
4874;DHT22;2451;49.970;9.068;2023-04-30T11:13:43;23.40;55.10
4874;DHT22;2451;49.970;9.068;2023-04-30T11:16:09;23.30;55.10
4874;DHT22;2451;49.970;9.068;2023-04-30T11:18:44;23.30;53.70
4874;DHT22;2451;49.970;9.068;2023-04-30T11:21:10;23.00;53.30
4874;DHT22;2451;49.970;9.068;2023-04-30T11:23:36;22.60;53.60
4874;DHT22;2451;49.970;9.068;2023-04-30T11:26:06;22.40;53.60
4874;DHT22;2451;49.970;9.068;2023-04-30T11:28:32;22.40;54.80
4874;DHT22;2451;49.970;9.068;2023-04-30T11:31:00;22.70;54.60
4874;DHT22;2451;49.970;9.068;2023-04-30T11:33:27;22.80;54.50
4874;DHT22;2451;49.970;9.068;2023-04-30T11:35:54;23.20;54.20
4874;DHT22;2451;49.970;9.068;2023-04-30T11:38:34;23.30;53.60
4874;DHT22;2451;49.970;9.068;2023-04-30T11:41:01;22.90;52.40
4874;DHT22;2451;49.970;9.068;2023-04-30T11:43:28;22.60;52.40
4874;DHT22;2451;49.970;9.068;2023-04-30T11:48:35;22.80;54.40
4874;DHT22;2451;49.970;9.068;2023-04-30T11:51:18;23.00;54.50
4874;DHT22;2451;49.970;9.068;2023-04-30T11:53:48;23.30;53.80
4874;DHT22;2451;49.970;9.068;2023-04-30T11:56:21;23.30;53.30
4874;DHT22;2451;49.970;9.068;2023-04-30T11:58:50;23.00;52.40
4874;DHT22;2451;49.970;9.068;2023-04-30T12:01:17;22.60;53.90
4874;DHT22;2451;49.970;9.068;2023-04-30T12:03:44;22.10;51.30
4874;DHT22;2451;49.970;9.068;2023-04-30T12:06:11;22.00;52.80
4874;DHT22;2451;49.970;9.068;2023-04-30T12:08:45;22.50;55.00
4874;DHT22;2451;49.970;9.068;2023-04-30T12:11:25;22.90;55.10
4874;DHT22;2451;49.970;9.068;2023-04-30T12:13:56;23.10;53.70
4874;DHT22;2451;49.970;9.068;2023-04-30T12:16:26;23.00;54.50
4874;DHT22;2451;49.970;9.068;2023-04-30T12:18:52;22.90;52.30
4874;DHT22;2451;49.970;9.068;2023-04-30T12:21:18;23.30;53.00
4874;DHT22;2451;49.970;9.068;2023-04-30T12:23:43;23.50;51.40
4874;DHT22;2451;49.970;9.068;2023-04-30T12:26:09;23.90;52.70
4874;DHT22;2451;49.970;9.068;2023-04-30T12:28:35;23.80;52.30
4874;DHT22;2451;49.970;9.068;2023-04-30T12:31:01;23.90;52.20
4874;DHT22;2451;49.970;9.068;2023-04-30T12:33:30;24.10;53.00
4874;DHT22;2451;49.970;9.068;2023-04-30T12:35:56;23.90;53.00
4874;DHT22;2451;49.970;9.068;2023-04-30T12:38:25;23.60;52.60
4874;DHT22;2451;49.970;9.068;2023-04-30T12:40:50;23.30;52.20
4874;DHT22;2451;49.970;9.068;2023-04-30T12:43:17;22.80;52.30
4874;DHT22;2451;49.970;9.068;2023-04-30T12:45:46;22.30;53.60
4874;DHT22;2451;49.970;9.068;2023-04-30T12:48:13;22.40;53.50
4874;DHT22;2451;49.970;9.068;2023-04-30T12:50:39;22.90;55.30
4874;DHT22;2451;49.970;9.068;2023-04-30T12:53:05;23.40;53.70
4874;DHT22;2451;49.970;9.068;2023-04-30T12:55:32;23.80;53.70
4874;DHT22;2451;49.970;9.068;2023-04-30T12:58:06;24.00;52.00
4874;DHT22;2451;49.970;9.068;2023-04-30T13:00:49;23.90;51.80
4874;DHT22;2451;49.970;9.068;2023-04-30T13:03:19;23.60;51.90
4874;DHT22;2451;49.970;9.068;2023-04-30T13:05:50;23.20;51.50
4874;DHT22;2451;49.970;9.068;2023-04-30T13:08:17;23.10;53.00
4874;DHT22;2451;49.970;9.068;2023-04-30T13:10:44;23.00;50.80
4874;DHT22;2451;49.970;9.068;2023-04-30T13:13:12;23.00;51.90
4874;DHT22;2451;49.970;9.068;2023-04-30T13:15:38;23.40;52.50
4874;DHT22;2451;49.970;9.068;2023-04-30T13:18:04;23.20;52.70
4874;DHT22;2451;49.970;9.068;2023-04-30T13:20:33;22.90;51.40
4874;DHT22;2451;49.970;9.068;2023-04-30T13:22:59;22.50;50.40
4874;DHT22;2451;49.970;9.068;2023-04-30T13:25:24;22.60;51.80
4874;DHT22;2451;49.970;9.068;2023-04-30T13:27:50;22.70;52.40
4874;DHT22;2451;49.970;9.068;2023-04-30T13:30:15;22.80;53.30
4874;DHT22;2451;49.970;9.068;2023-04-30T13:32:41;22.70;52.30
4874;DHT22;2451;49.970;9.068;2023-04-30T13:35:07;22.70;52.40
4874;DHT22;2451;49.970;9.068;2023-04-30T13:37:33;22.80;52.30
4874;DHT22;2451;49.970;9.068;2023-04-30T13:40:00;23.00;52.40
4874;DHT22;2451;49.970;9.068;2023-04-30T13:42:26;22.80;54.10
4874;DHT22;2451;49.970;9.068;2023-04-30T13:44:51;22.80;54.80
4874;DHT22;2451;49.970;9.068;2023-04-30T13:47:18;22.40;53.80
4874;DHT22;2451;49.970;9.068;2023-04-30T13:49:43;21.90;53.80
4874;DHT22;2451;49.970;9.068;2023-04-30T13:52:09;21.40;54.00
4874;DHT22;2451;49.970;9.068;2023-04-30T13:54:34;21.20;54.20
4874;DHT22;2451;49.970;9.068;2023-04-30T13:57:01;21.40;56.10
4874;DHT22;2451;49.970;9.068;2023-04-30T13:59:28;21.80;54.80
4874;DHT22;2451;49.970;9.068;2023-04-30T14:01:54;22.20;54.90
4874;DHT22;2451;49.970;9.068;2023-04-30T14:04:19;22.40;54.60
4874;DHT22;2451;49.970;9.068;2023-04-30T14:06:45;22.40;52.50
4874;DHT22;2451;49.970;9.068;2023-04-30T14:09:11;22.60;53.60
4874;DHT22;2451;49.970;9.068;2023-04-30T14:11:38;22.80;52.80
4874;DHT22;2451;49.970;9.068;2023-04-30T14:14:04;22.40;51.50
4874;DHT22;2451;49.970;9.068;2023-04-30T14:16:30;22.60;52.20
4874;DHT22;2451;49.970;9.068;2023-04-30T14:18:56;22.70;52.80
4874;DHT22;2451;49.970;9.068;2023-04-30T14:21:21;22.70;53.00
4874;DHT22;2451;49.970;9.068;2023-04-30T14:23:47;22.60;52.80
4874;DHT22;2451;49.970;9.068;2023-04-30T14:26:13;22.60;53.50
4874;DHT22;2451;49.970;9.068;2023-04-30T14:28:38;22.80;54.00
4874;DHT22;2451;49.970;9.068;2023-04-30T14:31:04;22.60;53.70
4874;DHT22;2451;49.970;9.068;2023-04-30T14:33:30;22.40;53.80
4874;DHT22;2451;49.970;9.068;2023-04-30T14:35:57;22.10;54.80
4874;DHT22;2451;49.970;9.068;2023-04-30T14:38:24;22.10;55.10
4874;DHT22;2451;49.970;9.068;2023-04-30T14:40:50;22.10;53.30
4874;DHT22;2451;49.970;9.068;2023-04-30T14:43:15;21.90;52.40
4874;DHT22;2451;49.970;9.068;2023-04-30T14:45:41;21.60;51.80
4874;DHT22;2451;49.970;9.068;2023-04-30T14:48:08;21.20;52.30
4874;DHT22;2451;49.970;9.068;2023-04-30T14:50:33;21.00;53.30
4874;DHT22;2451;49.970;9.068;2023-04-30T14:52:59;20.90;53.60
4874;DHT22;2451;49.970;9.068;2023-04-30T14:55:25;21.00;54.40
4874;DHT22;2451;49.970;9.068;2023-04-30T14:57:50;21.30;54.60
4874;DHT22;2451;49.970;9.068;2023-04-30T15:00:16;21.40;54.50
4874;DHT22;2451;49.970;9.068;2023-04-30T15:02:41;21.50;53.80
4874;DHT22;2451;49.970;9.068;2023-04-30T15:05:07;21.40;54.90
4874;DHT22;2451;49.970;9.068;2023-04-30T15:07:33;21.60;55.60
4874;DHT22;2451;49.970;9.068;2023-04-30T15:09:59;21.70;55.40
4874;DHT22;2451;49.970;9.068;2023-04-30T15:12:25;21.50;54.60
4874;DHT22;2451;49.970;9.068;2023-04-30T15:14:50;21.30;55.40
4874;DHT22;2451;49.970;9.068;2023-04-30T15:17:16;21.10;55.40
4874;DHT22;2451;49.970;9.068;2023-04-30T15:19:41;21.00;54.70
4874;DHT22;2451;49.970;9.068;2023-04-30T15:22:07;20.90;54.80
4874;DHT22;2451;49.970;9.068;2023-04-30T15:24:33;20.90;55.60
4874;DHT22;2451;49.970;9.068;2023-04-30T15:26:58;20.90;54.60
4874;DHT22;2451;49.970;9.068;2023-04-30T15:29:24;21.20;54.50
4874;DHT22;2451;49.970;9.068;2023-04-30T15:31:50;21.30;53.20
4874;DHT22;2451;49.970;9.068;2023-04-30T15:34:20;21.40;53.80
4874;DHT22;2451;49.970;9.068;2023-04-30T15:36:46;21.30;53.80
4874;DHT22;2451;49.970;9.068;2023-04-30T15:39:12;21.30;55.00
4874;DHT22;2451;49.970;9.068;2023-04-30T15:41:37;21.30;54.00
4874;DHT22;2451;49.970;9.068;2023-04-30T15:44:03;21.50;56.10
4874;DHT22;2451;49.970;9.068;2023-04-30T15:46:29;21.80;56.20
4874;DHT22;2451;49.970;9.068;2023-04-30T15:48:55;22.00;54.80
4874;DHT22;2451;49.970;9.068;2023-04-30T15:51:21;21.90;51.80
4874;DHT22;2451;49.970;9.068;2023-04-30T15:53:47;21.40;52.70
4874;DHT22;2451;49.970;9.068;2023-04-30T15:56:12;21.00;53.30
4874;DHT22;2451;49.970;9.068;2023-04-30T15:58:38;20.60;53.50
4874;DHT22;2451;49.970;9.068;2023-04-30T16:01:04;20.50;54.70
4874;DHT22;2451;49.970;9.068;2023-04-30T16:03:31;20.30;54.70
4874;DHT22;2451;49.970;9.068;2023-04-30T16:05:58;20.20;55.30
4874;DHT22;2451;49.970;9.068;2023-04-30T16:08:25;20.10;55.70
4874;DHT22;2451;49.970;9.068;2023-04-30T16:10:51;20.00;55.50
4874;DHT22;2451;49.970;9.068;2023-04-30T16:13:16;19.90;56.70
4874;DHT22;2451;49.970;9.068;2023-04-30T16:15:42;20.10;57.30